Time;durP1;ratioP1;P1;durP2;ratioP2;P2;SDS_P1;SDS_P2;PMS_P1;PMS_P2;Temp;Humidity;BMP_temperature;BMP_pressure;BME280_temperature;BME280_humidity;BME280_pressure;Samples;Min_cycle;Max_cycle;Signal;HPM_P1;HPM_P2
2022/09/21 00:00:49;;;;;;;8.65;3.63;;;7.30;99.90;;;;;;5053645;28;20044;-76
2022/09/21 00:03:15;;;;;;;9.52;4.10;;;7.30;99.90;;;;;;5054151;28;20516;-76
2022/09/21 00:05:41;;;;;;;7.18;4.03;;;7.30;99.90;;;;;;5036664;28;20127;-74
2022/09/21 00:08:09;;;;;;;11.27;5.00;;;7.30;99.90;;;;;;5056992;28;20425;-75
2022/09/21 00:10:35;;;;;;;8.30;3.70;;;7.30;99.90;;;;;;5057466;28;20136;-76
2022/09/21 00:13:03;;;;;;;6.50;3.83;;;7.30;99.90;;;;;;5057761;28;20476;-75
2022/09/21 00:15:29;;;;;;;8.50;4.47;;;7.20;99.90;;;;;;5057767;28;20083;-75
2022/09/21 00:17:56;;;;;;;6.28;3.45;;;7.20;99.90;;;;;;5039976;28;20049;-76
2022/09/21 00:20:23;;;;;;;8.38;4.00;;;7.10;99.90;;;;;;5040182;28;20053;-75
2022/09/21 00:22:50;;;;;;;7.65;4.47;;;7.10;99.90;;;;;;5057447;28;20087;-76
2022/09/21 00:25:17;;;;;;;8.00;3.85;;;7.10;99.90;;;;;;5039698;28;20055;-75
2022/09/21 00:27:42;;;;;;;8.85;3.90;;;7.10;99.90;;;;;;5039719;28;20056;-74
2022/09/21 00:30:08;;;;;;;7.00;4.07;;;7.10;99.90;;;;;;5057416;28;20400;-74
2022/09/21 00:32:36;;;;;;;9.60;4.85;;;7.10;99.90;;;;;;5057875;28;20509;-76
2022/09/21 00:35:04;;;;;;;8.52;3.97;;;7.10;99.90;;;;;;5056826;28;20481;-76
2022/09/21 00:37:30;;;;;;;8.30;4.03;;;7.00;99.90;;;;;;5037256;28;20111;-76
2022/09/21 00:39:56;;;;;;;8.70;4.50;;;7.00;99.90;;;;;;5039965;28;20098;-75
2022/09/21 00:42:28;;;;;;;8.13;4.05;;;7.00;99.90;;;;;;5057906;28;20056;-76
2022/09/21 00:44:54;;;;;;;9.27;4.38;;;7.00;99.90;;;;;;5034557;28;20484;-75
2022/09/21 00:47:43;;;;;;;6.82;3.85;;;7.00;99.90;;;;;;5038670;28;20467;-75
2022/09/21 00:50:12;;;;;;;9.00;4.38;;;7.00;99.90;;;;;;5056944;28;20186;-76
2022/09/21 00:52:43;;;;;;;7.53;4.00;;;6.90;99.90;;;;;;5057206;28;20056;-75
2022/09/21 00:55:18;;;;;;;7.30;4.00;;;6.90;99.90;;;;;;5056696;28;20477;-76
2022/09/21 00:57:48;;;;;;;6.35;3.78;;;6.90;99.90;;;;;;5038744;28;20041;-76
2022/09/21 01:00:14;;;;;;;8.05;4.10;;;6.90;99.90;;;;;;5057187;28;20369;-76
2022/09/21 01:02:40;;;;;;;10.90;4.18;;;6.90;99.90;;;;;;5056792;28;20049;-77
2022/09/21 01:05:07;;;;;;;7.88;3.80;;;6.80;99.90;;;;;;5040076;28;20049;-75
2022/09/21 01:07:36;;;;;;;7.68;4.28;;;6.80;99.90;;;;;;5057012;28;20370;-77
2022/09/21 01:10:08;;;;;;;7.70;4.10;;;6.80;99.90;;;;;;5057028;28;20053;-76
2022/09/21 01:12:36;;;;;;;9.95;4.32;;;6.70;99.90;;;;;;5056418;28;20805;-76
2022/09/21 01:15:06;;;;;;;8.15;4.05;;;6.70;99.90;;;;;;5039188;28;20049;-77
2022/09/21 01:17:41;;;;;;;6.07;3.53;;;6.70;99.90;;;;;;5038945;28;20052;-75
2022/09/21 01:20:21;;;;;;;16.25;4.18;;;6.70;99.90;;;;;;5056521;28;20053;-75
2022/09/21 01:23:13;;;;;;;9.80;4.40;;;6.70;99.90;;;;;;5039335;28;20061;-75
2022/09/21 01:26:10;;;;;;;5.75;3.78;;;6.70;99.90;;;;;;5015601;28;20361;-76
2022/09/21 01:29:03;;;;;;;6.07;3.97;;;6.70;99.90;;;;;;5043695;28;20116;-75
2022/09/21 01:31:56;;;;;;;7.07;4.03;;;6.60;99.90;;;;;;5055941;28;20048;-76
2022/09/21 01:34:53;;;;;;;11.95;4.68;;;6.60;99.90;;;;;;5055580;28;20087;-74
2022/09/21 01:37:47;;;;;;;9.20;4.18;;;6.60;99.90;;;;;;5055717;28;20465;-75
2022/09/21 01:40:17;;;;;;;;;;;6.50;99.90;;;;;;5045827;28;20063;-75
2022/09/21 01:42:44;;;;;;;6.15;4.28;;;6.50;99.90;;;;;;5056245;28;19940;-76
2022/09/21 01:45:15;;;;;;;7.97;4.68;;;6.50;99.90;;;;;;5029012;28;20083;-75
2022/09/21 01:47:43;;;;;;;8.25;4.38;;;6.50;99.90;;;;;;5038767;28;20122;-74
2022/09/21 01:50:10;;;;;;;9.32;4.45;;;6.50;99.90;;;;;;5056258;28;20092;-76
2022/09/21 01:52:49;;;;;;;7.72;4.43;;;6.50;99.90;;;;;;5038424;28;20151;-74
2022/09/21 01:55:22;;;;;;;7.75;4.57;;;6.50;99.90;;;;;;5034373;28;20411;-75
2022/09/21 01:58:10;;;;;;;10.77;4.32;;;6.40;99.90;;;;;;5036209;28;20045;-75
2022/09/21 02:00:37;;;;;;;8.13;4.53;;;6.50;99.90;;;;;;5018385;28;20419;-76
2022/09/21 02:03:12;;;;;;;8.18;4.22;;;6.40;99.90;;;;;;5035796;28;20075;-76
2022/09/21 02:05:39;;;;;;;7.20;4.07;;;6.40;99.90;;;;;;5035984;28;20045;-74
2022/09/21 02:08:06;;;;;;;5.78;3.90;;;6.40;99.90;;;;;;5036297;28;20060;-76
2022/09/21 02:10:46;;;;;;;8.98;4.30;;;6.40;99.90;;;;;;5045452;28;20041;-75
2022/09/21 02:13:15;;;;;;;7.00;4.22;;;6.40;99.90;;;;;;5055650;28;20036;-74
2022/09/21 02:16:06;;;;;;;6.22;4.07;;;6.80;99.90;;;;;;5055613;28;20103;-75
2022/09/21 02:18:56;;;;;;;8.57;3.70;;;6.40;99.90;;;;;;5055516;28;20045;-76
2022/09/21 02:21:47;;;;;;;8.68;4.38;;;6.30;99.90;;;;;;5038445;28;20476;-76
2022/09/21 02:24:24;;;;;;;6.47;4.43;;;6.30;99.90;;;;;;5054945;28;20047;-75
2022/09/21 02:27:12;;;;;;;6.65;4.00;;;6.40;99.90;;;;;;5037975;28;20453;-76
2022/09/21 02:30:00;;;;;;;6.20;3.80;;;6.30;99.90;;;;;;5021485;28;20044;-77
2022/09/21 02:32:49;;;;;;;7.35;4.15;;;6.30;99.90;;;;;;5055493;28;20106;-75
2022/09/21 02:35:47;;;;;;;7.55;4.00;;;6.20;99.90;;;;;;5055308;28;20057;-76
2022/09/21 02:38:46;;;;;;;7.30;4.03;;;6.20;99.90;;;;;;5009979;28;20057;-75
2022/09/21 02:41:37;;;;;;;8.70;4.53;;;6.20;99.90;;;;;;5055318;28;20402;-74
2022/09/21 02:44:17;;;;;;;9.48;4.20;;;6.20;99.90;;;;;;5055322;28;20048;-76
2022/09/21 02:46:48;;;;;;;6.32;3.78;;;6.20;99.90;;;;;;5045578;28;20053;-74
2022/09/21 02:49:30;;;;;;;6.97;4.18;;;6.20;99.90;;;;;;5054828;28;20041;-76
2022/09/21 02:51:59;;;;;;;8.23;4.43;;;6.20;99.90;;;;;;5037856;28;20045;-75
2022/09/21 02:54:29;;;;;;;9.27;4.30;;;6.20;99.90;;;;;;5046468;28;20060;-76
2022/09/21 02:56:57;;;;;;;7.07;4.25;;;6.40;99.90;;;;;;5051540;28;20370;-74
2022/09/21 02:59:22;;;;;;;7.65;4.30;;;6.10;99.90;;;;;;5037231;28;20095;-75
2022/09/21 03:01:50;;;;;;;8.13;4.40;;;6.10;99.90;;;;;;5054812;28;20045;-74
2022/09/21 03:04:16;;;;;;;7.65;3.88;;;6.10;99.90;;;;;;5054667;28;20060;-75
2022/09/21 03:06:42;;;;;;;8.05;4.00;;;6.00;99.90;;;;;;5037349;28;20048;-76
2022/09/21 03:09:08;;;;;;;6.10;3.70;;;6.00;99.90;;;;;;5037647;28;20037;-76
2022/09/21 03:11:34;;;;;;;6.40;3.97;;;6.00;99.90;;;;;;5054468;28;20041;-74
2022/09/21 03:14:04;;;;;;;7.55;3.95;;;6.00;99.90;;;;;;5054381;28;20480;-75
2022/09/21 03:16:29;;;;;;;6.72;3.88;;;6.00;99.90;;;;;;5054673;28;20093;-74
2022/09/21 03:18:55;;;;;;;8.30;3.47;;;6.00;99.90;;;;;;5054265;28;20081;-75
2022/09/21 03:21:21;;;;;;;7.30;3.30;;;6.00;99.90;;;;;;5053890;28;20063;-76
2022/09/21 03:23:46;;;;;;;6.95;3.40;;;6.00;99.90;;;;;;5035549;28;20049;-74
2022/09/21 03:26:12;;;;;;;6.00;3.40;;;5.90;99.90;;;;;;5025315;28;20052;-75
2022/09/21 03:28:38;;;;;;;6.82;3.88;;;6.10;99.90;;;;;;5016462;28;20057;-75
2022/09/21 03:31:05;;;;;;;6.78;3.30;;;5.90;99.90;;;;;;5034264;28;20045;-75
2022/09/21 03:33:30;;;;;;;5.28;3.08;;;5.90;99.90;;;;;;5033658;28;20045;-75
2022/09/21 03:35:56;;;;;;;6.47;3.88;;;5.90;99.90;;;;;;5033709;28;20076;-76
2022/09/21 03:38:23;;;;;;;5.35;3.28;;;6.20;99.90;;;;;;5035568;28;20053;-76
2022/09/21 03:40:49;;;;;;;7.97;3.75;;;5.80;99.90;;;;;;5043764;28;20045;-75
2022/09/21 03:43:16;;;;;;;8.40;3.83;;;5.90;99.90;;;;;;5018828;28;20045;-75
2022/09/21 03:45:42;;;;;;;7.70;4.32;;;5.80;99.90;;;;;;5042256;28;20052;-74
2022/09/21 03:48:10;;;;;;;7.32;3.65;;;5.80;99.90;;;;;;5056992;28;20106;-76
2022/09/21 03:50:36;;;;;;;9.77;3.72;;;5.70;99.90;;;;;;5056964;28;20037;-75
2022/09/21 03:53:02;;;;;;;11.15;4.07;;;5.70;99.90;;;;;;5056310;28;20045;-76
2022/09/21 03:55:28;;;;;;;5.90;3.65;;;5.70;99.90;;;;;;5056696;28;20458;-75
2022/09/21 03:57:54;;;;;;;7.20;4.15;;;5.70;99.90;;;;;;5057743;28;20048;-76
2022/09/21 04:00:20;;;;;;;6.53;3.92;;;5.60;99.90;;;;;;5058474;28;20120;-75
2022/09/21 04:02:46;;;;;;;7.03;4.20;;;5.60;99.90;;;;;;5058042;28;20350;-75
2022/09/21 04:05:14;;;;;;;8.02;3.70;;;5.80;99.90;;;;;;5055883;28;20037;-75
2022/09/21 04:07:41;;;;;;;6.95;3.72;;;5.80;99.90;;;;;;5045231;28;20399;-76
2022/09/21 04:10:11;;;;;;;8.07;4.07;;;5.60;99.90;;;;;;5056682;28;20085;-74
2022/09/21 04:12:38;;;;;;;6.68;4.22;;;5.60;99.90;;;;;;5045047;28;20061;-77
2022/09/21 04:15:06;;;;;;;8.77;4.22;;;6.10;99.90;;;;;;5036747;28;20045;-74
2022/09/21 04:17:32;;;;;;;5.78;4.03;;;5.60;99.90;;;;;;5037197;28;20132;-76
2022/09/21 04:19:58;;;;;;;7.85;4.38;;;5.60;99.90;;;;;;4982933;28;1068644;-76
2022/09/21 04:22:24;;;;;;;7.10;4.05;;;5.60;99.90;;;;;;5003371;28;20089;-76
2022/09/21 04:24:50;;;;;;;7.05;4.20;;;5.50;99.90;;;;;;5032230;28;20092;-74
2022/09/21 04:27:17;;;;;;;6.57;4.00;;;5.50;99.90;;;;;;5049384;28;20506;-75
2022/09/21 04:29:43;;;;;;;6.32;3.80;;;5.90;99.90;;;;;;5061562;28;20109;-77
2022/09/21 04:32:10;;;;;;;5.88;4.18;;;5.50;99.90;;;;;;5059961;28;20051;-75
2022/09/21 04:34:38;;;;;;;7.63;3.80;;;5.50;99.90;;;;;;5077996;28;20048;-76
2022/09/21 04:37:07;;;;;;;7.10;4.22;;;5.60;99.90;;;;;;5060109;28;20041;-76
2022/09/21 04:39:33;;;;;;;7.07;3.75;;;5.40;99.90;;;;;;5077523;28;20047;-76
2022/09/21 04:41:59;;;;;;;7.25;3.65;;;5.40;99.90;;;;;;5055225;28;20068;-75
2022/09/21 04:44:25;;;;;;;6.03;3.90;;;5.50;99.90;;;;;;5037565;28;20042;-75
2022/09/21 04:46:50;;;;;;;5.65;3.70;;;5.50;99.90;;;;;;5037905;28;20041;-75
2022/09/21 04:49:16;;;;;;;8.77;4.05;;;5.40;99.90;;;;;;5037484;28;20056;-76
2022/09/21 04:51:42;;;;;;;6.78;3.80;;;5.40;99.90;;;;;;5037602;28;20345;-74
2022/09/21 04:54:07;;;;;;;7.15;4.28;;;5.70;99.90;;;;;;5019708;28;20050;-76
2022/09/21 04:56:33;;;;;;;7.85;4.78;;;5.30;99.90;;;;;;5004254;28;20437;-76
2022/09/21 04:58:59;;;;;;;7.65;4.45;;;5.30;99.90;;;;;;5049441;28;20049;-74
2022/09/21 05:01:24;;;;;;;7.30;4.35;;;5.30;99.90;;;;;;5057336;28;20087;-74
2022/09/21 05:03:50;;;;;;;7.63;4.85;;;5.30;99.90;;;;;;5040018;28;20052;-73
2022/09/21 05:06:15;;;;;;;8.30;4.38;;;5.30;99.90;;;;;;5039815;28;20049;-74
2022/09/21 05:11:25;;;;;;;9.18;4.32;;;5.30;99.90;;;;;;5057660;28;20420;-73
2022/09/21 05:13:51;;;;;;;6.30;4.20;;;5.20;99.90;;;;;;5056798;28;20041;-73
2022/09/21 05:16:18;;;;;;;9.77;4.30;;;5.20;99.90;;;;;;5056434;28;20048;-77
2022/09/21 05:18:44;;;;;;;7.75;4.25;;;5.40;99.90;;;;;;5038181;28;20044;-74
2022/09/21 05:21:14;;;;;;;6.40;4.60;;;5.20;99.90;;;;;;5056862;28;20057;-76
2022/09/21 05:23:40;;;;;;;5.95;4.13;;;5.20;99.90;;;;;;5056518;28;20076;-76
2022/09/21 05:26:05;;;;;;;6.72;4.25;;;5.20;99.90;;;;;;5057014;28;20091;-75
2022/09/21 05:28:32;;;;;;;6.50;4.55;;;5.20;99.90;;;;;;5039217;28;20430;-75
2022/09/21 05:31:25;;;;;;;8.57;4.65;;;5.20;99.90;;;;;;5039195;28;20075;-75
2022/09/21 05:33:57;;;;;;;6.30;3.97;;;5.20;99.90;;;;;;5042450;28;20147;-74
2022/09/21 05:36:36;;;;;;;8.07;4.88;;;5.30;99.90;;;;;;5039193;28;20045;-76
2022/09/21 05:39:02;;;;;;;8.70;4.18;;;5.30;99.90;;;;;;5056508;28;20049;-75
2022/09/21 05:41:28;;;;;;;7.15;4.28;;;5.30;99.90;;;;;;5039441;28;20036;-75
2022/09/21 05:43:54;;;;;;;7.90;4.10;;;5.30;99.90;;;;;;5038390;28;20045;-76
2022/09/21 05:46:32;;;;;;;6.75;4.50;;;5.30;99.90;;;;;;5038876;28;20059;-74
2022/09/21 05:49:20;;;;;;;6.05;4.80;;;5.30;99.90;;;;;;5036736;28;20050;-75
2022/09/21 05:52:06;;;;;;;9.32;4.97;;;5.40;99.90;;;;;;5035402;28;20045;-76
2022/09/21 05:54:57;;;;;;;6.90;4.18;;;5.40;99.90;;;;;;5035221;28;20365;-76
2022/09/21 05:57:26;;;;;;;8.20;4.57;;;5.40;99.90;;;;;;5036223;28;20162;-74
2022/09/21 06:00:10;;;;;;;7.55;4.63;;;5.40;99.90;;;;;;5036325;28;20124;-76
2022/09/21 06:03:02;;;;;;;7.70;4.47;;;5.50;99.90;;;;;;5029736;28;20373;-74
2022/09/21 06:05:28;;;;;;;10.65;5.40;;;5.50;99.90;;;;;;5054188;28;20139;-75
2022/09/21 06:07:53;;;;;;;9.73;5.40;;;5.60;99.90;;;;;;5055792;28;20076;-75
2022/09/21 06:10:19;;;;;;;8.77;5.50;;;5.80;99.90;;;;;;5038980;28;20084;-75
2022/09/21 06:12:44;;;;;;;8.57;5.35;;;5.70;99.90;;;;;;5056048;28;20511;-74
2022/09/21 06:15:13;;;;;;;8.43;4.78;;;5.70;99.90;;;;;;5055821;28;20047;-74
2022/09/21 06:17:39;;;;;;;6.90;4.63;;;5.70;99.90;;;;;;5055968;28;20100;-75
2022/09/21 06:20:06;;;;;;;8.30;5.38;;;5.80;99.90;;;;;;5055400;28;20053;-76
2022/09/21 06:22:32;;;;;;;8.02;5.85;;;5.80;99.90;;;;;;5055695;28;20065;-76
2022/09/21 06:24:58;;;;;;;9.98;5.93;;;5.90;99.90;;;;;;5038472;28;20435;-74
2022/09/21 06:27:23;;;;;;;8.45;5.88;;;5.90;99.90;;;;;;5029936;28;20041;-75
2022/09/21 06:29:49;;;;;;;7.47;5.20;;;6.00;99.90;;;;;;5018214;28;20053;-76
2022/09/21 06:32:14;;;;;;;11.32;5.35;;;6.00;99.90;;;;;;5037159;28;20386;-74
2022/09/21 06:34:41;;;;;;;8.88;6.30;;;6.40;99.90;;;;;;5056051;28;20044;-75
2022/09/21 06:37:07;;;;;;;9.95;5.15;;;6.20;99.90;;;;;;5037842;28;20449;-75
2022/09/21 06:39:33;;;;;;;9.70;6.03;;;6.50;99.90;;;;;;5037811;28;20045;-75
2022/09/21 06:41:58;;;;;;;9.02;5.80;;;6.40;99.90;;;;;;5038403;28;20055;-74
2022/09/21 06:44:24;;;;;;;12.23;5.55;;;6.80;99.90;;;;;;5055357;28;20037;-76
2022/09/21 06:46:50;;;;;;;10.18;5.75;;;6.70;99.90;;;;;;5054844;28;20361;-76
2022/09/21 06:49:15;;;;;;;54.92;9.60;;;6.80;99.90;;;;;;5055824;28;20090;-74
2022/09/21 06:51:42;;;;;;;17.15;6.60;;;6.90;99.90;;;;;;5055144;28;20128;-76
2022/09/21 06:54:08;;;;;;;18.40;6.43;;;7.10;99.90;;;;;;5037857;28;20057;-75
2022/09/21 06:56:34;;;;;;;17.52;5.65;;;7.20;99.90;;;;;;5055446;28;20388;-74
2022/09/21 06:59:00;;;;;;;14.63;5.82;;;7.30;99.90;;;;;;5055382;28;20080;-75
2022/09/21 07:01:26;;;;;;;28.13;6.55;;;7.40;99.90;;;;;;5055034;28;20087;-74
2022/09/21 07:03:52;;;;;;;18.63;6.75;;;7.60;99.90;;;;;;5035130;28;20045;-74
2022/09/21 07:06:19;;;;;;;24.90;8.60;;;7.70;99.90;;;;;;5051386;28;20103;-74
2022/09/21 07:08:45;;;;;;;9.10;6.00;;;7.80;99.90;;;;;;5035110;28;20096;-76
2022/09/21 07:11:12;;;;;;;25.17;8.05;;;7.90;99.90;;;;;;5017697;28;20065;-74
2022/09/21 07:13:38;;;;;;;21.25;7.00;;;8.10;99.90;;;;;;5035214;28;20466;-75
2022/09/21 07:16:05;;;;;;;18.75;7.10;;;8.20;99.90;;;;;;5034638;28;20037;-75
2022/09/21 07:18:33;;;;;;;13.63;7.32;;;8.30;99.90;;;;;;5034649;28;20121;-76
2022/09/21 07:21:02;;;;;;;19.60;8.15;;;8.40;99.90;;;;;;5035335;28;20049;-75
2022/09/21 07:23:28;;;;;;;14.40;6.30;;;8.50;99.90;;;;;;5017785;28;20042;-75
2022/09/21 07:25:54;;;;;;;11.63;6.20;;;8.90;99.90;;;;;;5034879;28;20064;-76
2022/09/21 07:28:19;;;;;;;12.35;7.38;;;8.70;99.90;;;;;;5035071;28;20049;-75
2022/09/21 07:30:45;;;;;;;15.55;6.88;;;8.80;99.90;;;;;;5034899;28;20051;-76
2022/09/21 07:33:11;;;;;;;16.83;5.95;;;8.90;99.90;;;;;;5034942;28;20059;-75
2022/09/21 07:35:36;;;;;;;15.70;5.95;;;8.90;99.90;;;;;;5054633;28;20051;-75
2022/09/21 07:38:06;;;;;;;12.15;5.55;;;9.00;99.90;;;;;;5054970;28;20056;-76
2022/09/21 07:40:33;;;;;;;13.93;5.00;;;9.10;99.90;;;;;;5054532;28;20037;-74
2022/09/21 07:43:01;;;;;;;18.30;5.70;;;9.20;99.90;;;;;;5054685;28;20354;-76
2022/09/21 07:45:27;;;;;;;13.40;5.00;;;9.20;99.90;;;;;;5054693;28;20048;-74
2022/09/21 07:47:53;;;;;;;11.65;3.95;;;9.50;99.90;;;;;;5036569;28;20355;-74
2022/09/21 07:50:22;;;;;;;18.48;4.63;;;9.30;99.90;;;;;;5034860;28;20103;-77
2022/09/21 07:52:47;;;;;;;11.70;4.05;;;9.40;99.90;;;;;;5034765;28;20067;-76
2022/09/21 07:55:14;;;;;;;11.68;4.18;;;9.50;99.90;;;;;;5034751;28;20049;-75
2022/09/21 08:00:27;;;;;;;10.70;4.38;;;9.60;99.90;;;;;;5034749;28;20053;-74
2022/09/21 08:02:52;;;;;;;9.48;3.70;;;9.70;99.90;;;;;;5048747;28;20526;-75
2022/09/21 08:05:18;;;;;;;9.55;3.85;;;9.80;99.90;;;;;;5054512;28;20045;-74
2022/09/21 08:07:44;;;;;;;11.15;3.92;;;9.80;99.90;;;;;;5054376;28;20053;-76
2022/09/21 08:10:09;;;;;;;8.68;3.35;;;9.90;99.90;;;;;;5054348;28;20067;-75
2022/09/21 08:12:35;;;;;;;10.25;3.75;;;10.00;99.90;;;;;;5054572;28;20041;-75
2022/09/21 08:15:01;;;;;;;9.98;3.40;;;10.20;99.90;;;;;;5054137;28;20045;-74
2022/09/21 08:17:26;;;;;;;10.70;3.80;;;10.30;99.90;;;;;;5053752;28;20449;-74
2022/09/21 08:19:53;;;;;;;12.27;2.95;;;10.40;99.90;;;;;;5053922;28;20071;-75
2022/09/21 08:22:23;;;;;;;10.75;3.08;;;10.40;99.90;;;;;;5036961;28;20068;-75
2022/09/21 08:24:49;;;;;;;13.02;3.38;;;10.50;99.90;;;;;;5054265;28;20088;-76
2022/09/21 08:27:15;;;;;;;10.30;3.17;;;10.60;99.90;;;;;;5054535;28;20111;-75
2022/09/21 08:29:42;;;;;;;11.57;2.95;;;10.70;99.90;;;;;;5057397;28;20044;-75
2022/09/21 08:32:07;;;;;;;7.78;2.83;;;11.10;99.90;;;;;;5027629;28;20050;-75
2022/09/21 08:34:33;;;;;;;9.45;2.78;;;10.90;99.90;;;;;;5038126;28;20365;-74
2022/09/21 08:36:58;;;;;;;9.05;3.00;;;11.00;99.90;;;;;;5037611;28;20045;-76
2022/09/21 08:39:24;;;;;;;9.75;3.10;;;11.30;99.90;;;;;;5037644;28;20099;-74
2022/09/21 08:42:12;;;;;;;12.18;3.08;;;11.30;99.90;;;;;;5037935;28;20853;-74
2022/09/21 08:44:53;;;;;;;11.80;3.15;;;11.40;99.90;;;;;;5037825;28;20084;-75
2022/09/21 08:47:25;;;;;;;8.10;2.63;;;11.50;99.90;;;;;;5037237;28;20081;-75
2022/09/21 08:49:56;;;;;;;12.25;2.63;;;11.70;99.90;;;;;;5037683;28;20041;-74
2022/09/21 08:52:23;;;;;;;12.02;2.60;;;11.80;99.90;;;;;;5037391;28;20041;-74
2022/09/21 08:55:18;;;;;;;7.78;2.20;;;11.90;99.90;;;;;;5037498;28;20128;-75
2022/09/21 08:57:44;;;;;;;12.48;4.03;;;12.00;99.90;;;;;;5020031;28;20069;-74
2022/09/21 09:00:18;;;;;;;9.20;1.80;;;12.10;99.90;;;;;;5037861;28;20043;-75
2022/09/21 09:03:14;;;;;;;8.25;2.33;;;12.20;99.90;;;;;;5056811;28;20037;-76
2022/09/21 09:05:47;;;;;;;7.18;2.22;;;12.30;99.90;;;;;;5057216;28;20056;-76
2022/09/21 09:08:37;;;;;;;9.38;2.80;;;12.40;99.90;;;;;;5057104;28;20060;-75
2022/09/21 09:11:34;;;;;;;10.98;2.30;;;12.50;99.90;;;;;;5039708;28;20053;-75
2022/09/21 09:14:26;;;;;;;8.25;1.80;;;12.60;99.90;;;;;;5056993;28;20040;-76
2022/09/21 09:17:10;;;;;;;8.95;1.40;;;12.70;99.90;;;;;;5056916;28;20098;-76
2022/09/21 09:19:44;;;;;;;8.00;1.75;;;12.70;99.90;;;;;;5039071;28;20059;-75
2022/09/21 09:22:16;;;;;;;8.88;1.73;;;12.70;99.90;;;;;;5039096;28;20449;-76
2022/09/21 09:24:49;;;;;;;8.05;1.90;;;12.70;99.90;;;;;;5022644;28;20049;-74
2022/09/21 09:27:23;;;;;;;7.18;1.70;;;12.70;99.90;;;;;;5056699;28;20049;-75
2022/09/21 09:30:15;;;;;;;4.85;1.42;;;12.80;99.90;;;;;;5039506;28;20056;-76
2022/09/21 09:32:50;;;;;;;10.27;1.92;;;13.00;99.90;;;;;;5053190;28;20097;-76
2022/09/21 09:35:42;;;;;;;10.38;1.85;;;13.20;99.90;;;;;;5056905;28;20045;-75
2022/09/21 09:38:26;;;;;;;7.60;2.15;;;13.40;99.90;;;;;;5056673;28;20048;-76
2022/09/21 09:41:01;;;;;;;8.95;1.55;;;13.50;99.90;;;;;;5055496;28;20037;-75
2022/09/21 09:43:47;;;;;;;10.95;2.10;;;13.50;99.90;;;;;;5038858;28;20473;-76
2022/09/21 09:46:49;;;;;;;6.53;1.58;;;13.50;99.90;;;;;;5056696;28;20056;-75
2022/09/21 09:49:29;;;;;;;5.03;1.20;;;13.40;99.90;;;;;;5020267;28;20064;-75
2022/09/21 09:51:55;;;;;;;7.63;1.58;;;13.40;99.90;;;;;;5036380;28;20525;-75
2022/09/21 09:54:24;;;;;;;10.88;1.52;;;13.50;99.90;;;;;;5036707;28;20128;-75
2022/09/21 09:56:50;;;;;;;6.78;1.45;;;13.50;99.90;;;;;;5019349;28;20049;-74
2022/09/21 09:59:42;;;;;;;5.90;1.65;;;13.30;99.90;;;;;;5036406;28;20500;-75
2022/09/21 10:02:18;;;;;;;7.75;1.50;;;13.30;99.90;;;;;;5007698;28;20132;-75
2022/09/21 10:05:07;;;;;;;6.55;1.60;;;13.50;99.90;;;;;;5035975;28;20050;-75
2022/09/21 10:07:42;;;;;;;9.27;1.48;;;13.70;99.90;;;;;;5051826;28;20037;-75
2022/09/21 10:10:39;;;;;;;4.53;1.20;;;13.90;99.90;;;;;;5036085;28;20049;-74
2022/09/21 10:13:14;;;;;;;8.00;1.65;;;14.00;99.90;;;;;;5036264;28;20127;-75
2022/09/21 10:15:51;;;;;;;6.53;1.80;;;14.10;99.90;;;;;;5018234;28;20081;-75
2022/09/21 10:18:25;;;;;;;7.57;2.35;;;14.20;99.90;;;;;;5051887;28;20085;-75
2022/09/21 10:20:58;;;;;;;5.95;1.65;;;14.40;99.90;;;;;;5036013;28;20053;-75
2022/09/21 10:23:27;;;;;;;9.32;1.52;;;14.30;99.90;;;;;;5018315;28;20045;-76
2022/09/21 10:26:03;;;;;;;6.18;1.15;;;14.40;99.90;;;;;;5018026;28;20057;-75
2022/09/21 10:28:29;;;;;;;7.78;1.55;;;14.50;99.90;;;;;;5035622;28;20064;-75
2022/09/21 10:31:18;;;;;;;5.43;1.17;;;14.60;99.90;;;;;;5018468;28;20049;-75
2022/09/21 10:33:52;;;;;;;7.55;1.70;;;14.80;99.90;;;;;;5040306;28;20075;-75
2022/09/21 10:36:35;;;;;;;8.02;1.65;;;15.00;99.90;;;;;;5055456;28;20052;-75
2022/09/21 10:39:23;;;;;;;7.35;1.58;;;15.10;99.90;;;;;;5035966;28;20045;-75
2022/09/21 10:41:52;;;;;;;6.03;1.30;;;15.20;99.90;;;;;;5035237;28;20124;-75
2022/09/21 10:44:21;;;;;;;7.68;1.48;;;15.30;99.90;;;;;;5035831;28;20097;-75
2022/09/21 10:46:48;;;;;;;7.18;1.95;;;15.30;99.90;;;;;;5035910;28;20442;-76
2022/09/21 10:49:24;;;;;;;6.95;1.25;;;15.40;99.90;;;;;;5035393;28;20052;-75
2022/09/21 10:51:54;;;;;;;5.90;1.40;;;15.40;99.90;;;;;;5034961;28;20052;-76
2022/09/21 10:54:30;;;;;;;9.30;1.85;;;15.50;99.90;;;;;;5035412;28;20054;-76
2022/09/21 10:57:05;;;;;;;10.82;2.10;;;15.50;99.90;;;;;;5017919;28;20068;-76
2022/09/21 10:59:34;;;;;;;7.70;1.52;;;15.50;99.90;;;;;;5035387;28;20125;-75
2022/09/21 11:02:01;;;;;;;6.38;1.38;;;15.60;99.90;;;;;;5018106;28;20055;-75
2022/09/21 11:04:37;;;;;;;7.82;1.70;;;15.70;99.90;;;;;;5035027;28;20042;-75
2022/09/21 11:07:27;;;;;;;3.45;1.20;;;15.80;99.90;;;;;;5017869;28;20405;-74
2022/09/21 11:10:11;;;;;;;4.15;1.17;;;15.90;99.90;;;;;;5019052;28;20060;-76
2022/09/21 11:12:40;;;;;;;9.68;1.50;;;16.00;99.90;;;;;;5035081;28;20041;-75
2022/09/21 11:15:16;;;;;;;7.90;1.60;;;16.00;99.90;;;;;;5034860;28;20064;-75
2022/09/21 11:17:53;;;;;;;4.70;1.50;;;16.10;99.90;;;;;;5035212;28;20060;-76
2022/09/21 11:20:30;;;;;;;15.20;1.85;;;16.10;99.90;;;;;;5034920;28;20057;-76
2022/09/21 11:23:09;;;;;;;5.82;1.40;;;16.10;99.90;;;;;;5034930;28;20045;-75
2022/09/21 11:25:43;;;;;;;4.28;1.25;;;16.10;99.90;;;;;;5053542;28;20124;-75
2022/09/21 11:28:24;;;;;;;;;;;16.20;99.90;;;;;;5055331;28;20445;-75
2022/09/21 11:31:18;;;;;;;5.97;1.38;;;16.20;99.90;;;;;;5054718;28;19924;-75
2022/09/21 11:34:12;;;;;;;6.75;1.35;;;16.40;99.90;;;;;;5054773;28;20095;-76
2022/09/21 11:37:17;;;;;;;3.50;1.30;;;16.40;99.90;;;;;;5054695;28;20045;-75
2022/09/21 11:39:55;;;;;;;5.35;1.20;;;16.40;99.90;;;;;;5036485;28;20049;-75
2022/09/21 11:42:41;;;;;;;6.68;1.08;;;16.50;99.90;;;;;;5034774;28;20115;-76
2022/09/21 11:45:46;;;;;;;4.80;1.15;;;16.40;99.20;;;;;;5001369;28;20060;-75
2022/09/21 11:48:34;;;;;;;5.25;1.30;;;16.40;99.90;;;;;;5034806;28;20370;-76
2022/09/21 11:51:24;;;;;;;9.73;1.77;;;16.20;99.90;;;;;;5034508;28;20056;-75
2022/09/21 11:54:14;;;;;;;9.27;1.30;;;16.20;99.90;;;;;;5042889;28;20047;-75
2022/09/21 11:56:43;;;;;;;7.43;1.52;;;16.30;99.90;;;;;;5054694;28;20063;-76
2022/09/21 11:59:37;;;;;;;7.70;1.30;;;16.40;99.90;;;;;;5055191;28;20393;-76
2022/09/21 12:02:51;;;;;;;9.20;1.73;;;16.40;99.90;;;;;;5054714;28;20110;-75
2022/09/21 12:05:40;;;;;;;3.97;1.20;;;16.20;99.90;;;;;;5009247;28;20057;-75
2022/09/21 12:08:24;;;;;;;4.90;1.20;;;16.10;99.90;;;;;;5035885;28;20052;-76
2022/09/21 12:11:51;;;;;;;5.20;1.40;;;16.10;99.90;;;;;;5053926;28;20477;-76
2022/09/21 12:14:36;;;;;;;4.63;1.40;;;16.00;99.90;;;;;;4977978;28;20057;-76
2022/09/21 12:17:07;;;;;;;5.93;1.00;;;15.90;99.90;;;;;;4977473;28;20435;-75
2022/09/21 12:20:11;;;;;;;5.45;1.10;;;16.00;99.90;;;;;;5015513;28;20061;-76
2022/09/21 12:22:44;;;;;;;3.70;1.20;;;16.00;99.90;;;;;;5004054;28;20089;-75
2022/09/21 12:25:18;;;;;;;5.28;1.02;;;16.00;99.90;;;;;;5038114;28;20425;-75
2022/09/21 12:28:13;;;;;;;4.25;1.30;;;15.90;99.90;;;;;;5038082;28;20088;-75
2022/09/21 12:30:43;;;;;;;7.82;1.70;;;15.80;99.90;;;;;;5037960;28;20045;-75
2022/09/21 12:33:20;;;;;;;4.45;1.38;;;15.90;99.90;;;;;;5053323;28;20041;-75
2022/09/21 12:35:57;;;;;;;8.80;1.30;;;15.90;99.90;;;;;;5038090;28;20167;-74
2022/09/21 12:38:29;;;;;;;4.28;1.20;;;16.10;99.90;;;;;;5044528;28;20080;-74
2022/09/21 12:40:58;;;;;;;5.75;1.17;;;16.20;99.90;;;;;;5040162;28;20041;-75
2022/09/21 12:43:45;;;;;;;4.25;1.23;;;16.30;99.90;;;;;;5040246;28;20484;-75
2022/09/21 12:46:28;;;;;;;6.93;1.67;;;16.40;99.90;;;;;;5057763;28;20127;-75
2022/09/21 12:48:54;;;;;;;4.10;0.93;;;16.50;99.90;;;;;;5057878;28;20045;-75
2022/09/21 12:51:27;;;;;;;2.70;1.20;;;16.50;99.90;;;;;;5057215;28;20045;-74
2022/09/21 12:53:55;;;;;;;3.83;1.08;;;16.60;99.90;;;;;;5057834;28;20076;-75
2022/09/21 12:56:41;;;;;;;3.65;1.10;;;16.70;99.90;;;;;;5040199;28;20099;-76
2022/09/21 12:59:30;;;;;;;5.60;1.30;;;16.80;99.90;;;;;;5037725;28;20077;-75
2022/09/21 13:02:19;;;;;;;5.70;1.45;;;16.80;97.70;;;;;;5037263;28;20065;-74
2022/09/21 13:05:06;;;;;;;3.85;1.10;;;16.90;98.00;;;;;;5019974;28;20117;-75
2022/09/21 13:07:56;;;;;;;5.28;1.15;;;17.00;98.90;;;;;;5037625;28;20045;-75
2022/09/21 13:10:41;;;;;;;5.13;1.20;;;17.10;99.10;;;;;;5020082;28;20351;-75
2022/09/21 13:13:22;;;;;;;4.05;0.90;;;17.20;99.90;;;;;;5056689;28;20106;-75
2022/09/21 13:15:49;;;;;;;6.03;1.35;;;17.30;99.90;;;;;;5057077;28;20045;-76
2022/09/21 13:18:24;;;;;;;3.72;0.98;;;17.50;99.90;;;;;;5038763;28;20469;-76
2022/09/21 13:20:53;;;;;;;4.75;1.00;;;17.50;99.30;;;;;;5057271;28;20473;-76
2022/09/21 13:23:25;;;;;;;3.88;1.10;;;17.50;98.70;;;;;;5057261;28;20066;-74
2022/09/21 13:26:04;;;;;;;3.78;1.20;;;17.60;99.90;;;;;;5053460;28;20095;-76
2022/09/21 13:28:59;;;;;;;5.10;1.20;;;17.50;99.90;;;;;;5026321;28;20056;-75
2022/09/21 13:31:30;;;;;;;4.13;1.10;;;17.50;99.90;;;;;;5056642;28;20055;-75